sensor_id;sensor_type;location;lat;lon;timestamp;P1;durP1;ratioP1;P2;durP2;ratioP2
20639;SDS011;10479;53.524;9.846;2023-03-23T00:01:26;19.27;;;9.95;;
20639;SDS011;10479;53.524;9.846;2023-03-23T00:03:55;29.40;;;11.20;;
20639;SDS011;10479;53.524;9.846;2023-03-23T00:06:22;24.85;;;10.85;;
20639;SDS011;10479;53.524;9.846;2023-03-23T00:08:49;25.92;;;11.80;;
20639;SDS011;10479;53.524;9.846;2023-03-23T00:11:21;24.20;;;12.38;;
20639;SDS011;10479;53.524;9.846;2023-03-23T00:13:49;28.73;;;12.48;;
20639;SDS011;10479;53.524;9.846;2023-03-23T00:16:22;26.67;;;11.63;;
20639;SDS011;10479;53.524;9.846;2023-03-23T00:18:54;21.90;;;10.98;;
20639;SDS011;10479;53.524;9.846;2023-03-23T00:21:23;27.75;;;14.02;;
20639;SDS011;10479;53.524;9.846;2023-03-23T00:23:53;33.47;;;14.55;;
20639;SDS011;10479;53.524;9.846;2023-03-23T00:26:19;28.98;;;15.73;;
20639;SDS011;10479;53.524;9.846;2023-03-23T00:28:44;25.90;;;14.00;;
20639;SDS011;10479;53.524;9.846;2023-03-23T00:31:12;26.92;;;15.15;;
20639;SDS011;10479;53.524;9.846;2023-03-23T00:33:38;32.92;;;16.08;;
20639;SDS011;10479;53.524;9.846;2023-03-23T00:36:09;31.88;;;16.52;;
20639;SDS011;10479;53.524;9.846;2023-03-23T00:38:36;35.85;;;15.95;;
20639;SDS011;10479;53.524;9.846;2023-03-23T00:41:03;29.65;;;14.82;;
20639;SDS011;10479;53.524;9.846;2023-03-23T00:43:29;32.83;;;16.25;;
20639;SDS011;10479;53.524;9.846;2023-03-23T00:45:55;27.80;;;14.82;;
20639;SDS011;10479;53.524;9.846;2023-03-23T00:48:22;28.85;;;16.48;;
20639;SDS011;10479;53.524;9.846;2023-03-23T00:50:48;30.38;;;16.92;;
20639;SDS011;10479;53.524;9.846;2023-03-23T00:53:14;31.15;;;15.82;;
20639;SDS011;10479;53.524;9.846;2023-03-23T00:55:44;29.30;;;14.23;;
20639;SDS011;10479;53.524;9.846;2023-03-23T00:58:11;25.80;;;12.68;;
20639;SDS011;10479;53.524;9.846;2023-03-23T01:00:37;30.27;;;15.70;;
20639;SDS011;10479;53.524;9.846;2023-03-23T01:03:03;31.48;;;17.33;;
20639;SDS011;10479;53.524;9.846;2023-03-23T01:05:29;30.70;;;16.23;;
20639;SDS011;10479;53.524;9.846;2023-03-23T01:07:58;28.08;;;17.05;;
20639;SDS011;10479;53.524;9.846;2023-03-23T01:10:24;32.35;;;16.48;;
20639;SDS011;10479;53.524;9.846;2023-03-23T01:12:53;28.75;;;16.48;;
20639;SDS011;10479;53.524;9.846;2023-03-23T01:15:19;31.95;;;17.10;;
20639;SDS011;10479;53.524;9.846;2023-03-23T01:17:45;36.63;;;17.58;;
20639;SDS011;10479;53.524;9.846;2023-03-23T01:20:14;37.17;;;17.90;;
20639;SDS011;10479;53.524;9.846;2023-03-23T01:22:41;33.78;;;17.63;;
20639;SDS011;10479;53.524;9.846;2023-03-23T01:25:07;32.40;;;16.70;;
20639;SDS011;10479;53.524;9.846;2023-03-23T01:27:33;36.45;;;18.98;;
20639;SDS011;10479;53.524;9.846;2023-03-23T01:29:59;36.55;;;18.08;;
20639;SDS011;10479;53.524;9.846;2023-03-23T01:32:25;39.30;;;19.70;;
20639;SDS011;10479;53.524;9.846;2023-03-23T01:34:50;35.15;;;18.05;;
20639;SDS011;10479;53.524;9.846;2023-03-23T01:37:16;39.80;;;20.10;;
20639;SDS011;10479;53.524;9.846;2023-03-23T01:39:41;36.30;;;20.10;;
20639;SDS011;10479;53.524;9.846;2023-03-23T01:42:10;30.85;;;16.83;;
20639;SDS011;10479;53.524;9.846;2023-03-23T01:47:01;38.50;;;19.85;;
20639;SDS011;10479;53.524;9.846;2023-03-23T01:49:27;41.10;;;20.83;;
20639;SDS011;10479;53.524;9.846;2023-03-23T01:51:57;36.65;;;19.25;;
20639;SDS011;10479;53.524;9.846;2023-03-23T01:54:25;33.15;;;18.15;;
20639;SDS011;10479;53.524;9.846;2023-03-23T01:56:53;35.10;;;19.08;;
20639;SDS011;10479;53.524;9.846;2023-03-23T01:59:22;34.20;;;16.83;;
20639;SDS011;10479;53.524;9.846;2023-03-23T02:01:49;33.65;;;18.05;;
20639;SDS011;10479;53.524;9.846;2023-03-23T02:04:17;33.40;;;16.35;;
20639;SDS011;10479;53.524;9.846;2023-03-23T02:06:43;31.67;;;17.25;;
20639;SDS011;10479;53.524;9.846;2023-03-23T02:09:10;35.42;;;18.65;;
20639;SDS011;10479;53.524;9.846;2023-03-23T02:11:38;35.92;;;17.83;;
20639;SDS011;10479;53.524;9.846;2023-03-23T02:14:04;30.05;;;15.60;;
20639;SDS011;10479;53.524;9.846;2023-03-23T02:16:34;31.15;;;15.30;;
20639;SDS011;10479;53.524;9.846;2023-03-23T02:24:56;34.10;;;18.50;;
20639;SDS011;10479;53.524;9.846;2023-03-23T02:33:14;34.20;;;18.02;;
20639;SDS011;10479;53.524;9.846;2023-03-23T02:35:50;27.67;;;13.52;;
20639;SDS011;10479;53.524;9.846;2023-03-23T02:38:21;33.20;;;16.35;;
20639;SDS011;10479;53.524;9.846;2023-03-23T02:40:51;29.40;;;16.73;;
20639;SDS011;10479;53.524;9.846;2023-03-23T02:43:20;25.45;;;14.77;;
20639;SDS011;10479;53.524;9.846;2023-03-23T02:45:47;31.08;;;16.98;;
20639;SDS011;10479;53.524;9.846;2023-03-23T02:48:15;28.60;;;16.90;;
20639;SDS011;10479;53.524;9.846;2023-03-23T02:50:42;33.55;;;17.75;;
20639;SDS011;10479;53.524;9.846;2023-03-23T02:53:10;31.20;;;16.05;;
20639;SDS011;10479;53.524;9.846;2023-03-23T02:55:38;28.30;;;16.27;;
20639;SDS011;10479;53.524;9.846;2023-03-23T02:58:07;28.10;;;16.20;;
20639;SDS011;10479;53.524;9.846;2023-03-23T03:00:33;29.27;;;16.25;;
20639;SDS011;10479;53.524;9.846;2023-03-23T03:02:59;30.23;;;17.95;;
20639;SDS011;10479;53.524;9.846;2023-03-23T03:10:48;28.40;;;17.75;;
20639;SDS011;10479;53.524;9.846;2023-03-23T03:18:57;27.80;;;15.05;;
20639;SDS011;10479;53.524;9.846;2023-03-23T03:21:27;27.33;;;16.15;;
20639;SDS011;10479;53.524;9.846;2023-03-23T03:23:55;30.15;;;17.17;;
20639;SDS011;10479;53.524;9.846;2023-03-23T03:26:21;25.05;;;15.48;;
20639;SDS011;10479;53.524;9.846;2023-03-23T03:28:51;25.20;;;15.27;;
20639;SDS011;10479;53.524;9.846;2023-03-23T03:31:19;25.17;;;14.82;;
20639;SDS011;10479;53.524;9.846;2023-03-23T03:33:46;25.90;;;14.30;;
20639;SDS011;10479;53.524;9.846;2023-03-23T03:36:15;26.38;;;15.10;;
20639;SDS011;10479;53.524;9.846;2023-03-23T03:38:44;25.63;;;15.40;;
20639;SDS011;10479;53.524;9.846;2023-03-23T03:41:12;23.23;;;14.30;;
20639;SDS011;10479;53.524;9.846;2023-03-23T03:43:37;24.13;;;14.95;;
20639;SDS011;10479;53.524;9.846;2023-03-23T03:46:03;22.95;;;14.05;;
20639;SDS011;10479;53.524;9.846;2023-03-23T03:48:28;24.73;;;14.38;;
20639;SDS011;10479;53.524;9.846;2023-03-23T03:50:54;23.40;;;14.63;;
20639;SDS011;10479;53.524;9.846;2023-03-23T03:53:21;25.00;;;14.63;;
20639;SDS011;10479;53.524;9.846;2023-03-23T03:55:48;23.45;;;14.70;;
20639;SDS011;10479;53.524;9.846;2023-03-23T03:58:15;25.02;;;13.70;;
20639;SDS011;10479;53.524;9.846;2023-03-23T04:00:41;24.85;;;14.35;;
20639;SDS011;10479;53.524;9.846;2023-03-23T04:03:07;23.83;;;14.32;;
20639;SDS011;10479;53.524;9.846;2023-03-23T04:05:32;25.83;;;14.38;;
20639;SDS011;10479;53.524;9.846;2023-03-23T04:07:58;24.33;;;14.75;;
20639;SDS011;10479;53.524;9.846;2023-03-23T04:10:27;23.08;;;14.70;;
20639;SDS011;10479;53.524;9.846;2023-03-23T04:12:54;24.85;;;14.57;;
20639;SDS011;10479;53.524;9.846;2023-03-23T04:15:20;26.58;;;14.45;;
20639;SDS011;10479;53.524;9.846;2023-03-23T04:17:46;23.02;;;14.10;;
20639;SDS011;10479;53.524;9.846;2023-03-23T04:20:12;23.23;;;13.38;;
20639;SDS011;10479;53.524;9.846;2023-03-23T04:22:42;26.10;;;15.15;;
20639;SDS011;10479;53.524;9.846;2023-03-23T04:25:09;22.40;;;13.70;;
20639;SDS011;10479;53.524;9.846;2023-03-23T04:27:37;25.73;;;14.70;;
20639;SDS011;10479;53.524;9.846;2023-03-23T04:30:08;24.58;;;13.85;;
20639;SDS011;10479;53.524;9.846;2023-03-23T04:32:38;26.83;;;14.90;;
20639;SDS011;10479;53.524;9.846;2023-03-23T04:35:07;23.73;;;13.40;;
20639;SDS011;10479;53.524;9.846;2023-03-23T04:37:34;22.27;;;13.60;;
20639;SDS011;10479;53.524;9.846;2023-03-23T04:40:00;22.63;;;13.13;;
20639;SDS011;10479;53.524;9.846;2023-03-23T04:42:30;21.90;;;12.82;;
20639;SDS011;10479;53.524;9.846;2023-03-23T04:44:56;24.23;;;12.40;;
20639;SDS011;10479;53.524;9.846;2023-03-23T04:47:23;21.10;;;12.90;;
20639;SDS011;10479;53.524;9.846;2023-03-23T04:49:49;18.95;;;12.50;;
20639;SDS011;10479;53.524;9.846;2023-03-23T04:52:16;20.85;;;12.23;;
20639;SDS011;10479;53.524;9.846;2023-03-23T04:54:42;22.98;;;13.15;;
20639;SDS011;10479;53.524;9.846;2023-03-23T04:57:07;18.23;;;10.25;;
20639;SDS011;10479;53.524;9.846;2023-03-23T04:59:33;20.55;;;12.90;;
20639;SDS011;10479;53.524;9.846;2023-03-23T05:01:59;20.15;;;12.40;;
20639;SDS011;10479;53.524;9.846;2023-03-23T05:04:24;21.50;;;12.32;;
20639;SDS011;10479;53.524;9.846;2023-03-23T05:06:50;20.40;;;13.13;;
20639;SDS011;10479;53.524;9.846;2023-03-23T05:09:16;19.67;;;12.55;;
20639;SDS011;10479;53.524;9.846;2023-03-23T05:11:42;20.23;;;10.75;;
20639;SDS011;10479;53.524;9.846;2023-03-23T05:14:07;20.25;;;11.55;;
20639;SDS011;10479;53.524;9.846;2023-03-23T05:16:33;20.05;;;12.40;;
20639;SDS011;10479;53.524;9.846;2023-03-23T05:19:02;22.88;;;12.57;;
20639;SDS011;10479;53.524;9.846;2023-03-23T05:21:27;21.02;;;12.13;;
20639;SDS011;10479;53.524;9.846;2023-03-23T05:23:53;18.40;;;12.15;;
20639;SDS011;10479;53.524;9.846;2023-03-23T05:26:21;24.08;;;12.77;;
20639;SDS011;10479;53.524;9.846;2023-03-23T05:28:48;24.50;;;12.63;;
20639;SDS011;10479;53.524;9.846;2023-03-23T05:31:17;19.48;;;11.73;;
20639;SDS011;10479;53.524;9.846;2023-03-23T05:33:43;21.23;;;12.60;;
20639;SDS011;10479;53.524;9.846;2023-03-23T05:36:10;19.15;;;11.13;;
20639;SDS011;10479;53.524;9.846;2023-03-23T05:38:38;21.17;;;11.35;;
20639;SDS011;10479;53.524;9.846;2023-03-23T05:41:07;18.70;;;11.15;;
20639;SDS011;10479;53.524;9.846;2023-03-23T05:43:33;24.63;;;11.27;;
20639;SDS011;10479;53.524;9.846;2023-03-23T05:45:58;21.55;;;11.05;;
20639;SDS011;10479;53.524;9.846;2023-03-23T05:48:24;17.83;;;10.38;;
20639;SDS011;10479;53.524;9.846;2023-03-23T05:50:50;18.58;;;10.52;;
20639;SDS011;10479;53.524;9.846;2023-03-23T05:53:15;19.45;;;9.82;;
20639;SDS011;10479;53.524;9.846;2023-03-23T05:55:41;19.70;;;9.73;;
20639;SDS011;10479;53.524;9.846;2023-03-23T05:58:06;18.25;;;9.68;;
20639;SDS011;10479;53.524;9.846;2023-03-23T06:00:32;14.90;;;8.38;;
20639;SDS011;10479;53.524;9.846;2023-03-23T06:02:57;16.40;;;9.10;;
20639;SDS011;10479;53.524;9.846;2023-03-23T06:05:23;15.38;;;8.65;;
20639;SDS011;10479;53.524;9.846;2023-03-23T06:07:50;13.95;;;8.68;;
20639;SDS011;10479;53.524;9.846;2023-03-23T06:10:17;15.32;;;8.55;;
20639;SDS011;10479;53.524;9.846;2023-03-23T06:12:42;14.43;;;8.73;;
20639;SDS011;10479;53.524;9.846;2023-03-23T06:15:08;15.82;;;7.95;;
20639;SDS011;10479;53.524;9.846;2023-03-23T06:17:35;16.17;;;8.13;;
20639;SDS011;10479;53.524;9.846;2023-03-23T06:20:01;16.05;;;8.10;;
20639;SDS011;10479;53.524;9.846;2023-03-23T06:22:29;13.00;;;8.10;;
20639;SDS011;10479;53.524;9.846;2023-03-23T06:24:55;12.55;;;7.70;;
20639;SDS011;10479;53.524;9.846;2023-03-23T06:27:22;15.05;;;7.05;;
20639;SDS011;10479;53.524;9.846;2023-03-23T06:29:48;14.00;;;6.85;;
20639;SDS011;10479;53.524;9.846;2023-03-23T06:32:15;16.58;;;7.00;;
20639;SDS011;10479;53.524;9.846;2023-03-23T06:34:40;11.52;;;5.95;;
20639;SDS011;10479;53.524;9.846;2023-03-23T06:37:09;11.98;;;6.60;;
20639;SDS011;10479;53.524;9.846;2023-03-23T06:39:35;14.15;;;6.63;;
20639;SDS011;10479;53.524;9.846;2023-03-23T06:42:02;12.63;;;6.55;;
20639;SDS011;10479;53.524;9.846;2023-03-23T06:44:28;15.55;;;6.07;;
20639;SDS011;10479;53.524;9.846;2023-03-23T06:46:53;10.10;;;5.38;;
20639;SDS011;10479;53.524;9.846;2023-03-23T06:49:19;12.95;;;5.72;;
20639;SDS011;10479;53.524;9.846;2023-03-23T06:51:44;11.43;;;5.20;;
20639;SDS011;10479;53.524;9.846;2023-03-23T06:54:10;11.57;;;5.05;;
20639;SDS011;10479;53.524;9.846;2023-03-23T06:56:35;9.88;;;4.72;;
20639;SDS011;10479;53.524;9.846;2023-03-23T06:59:01;8.27;;;4.32;;
20639;SDS011;10479;53.524;9.846;2023-03-23T07:01:26;9.15;;;4.78;;
20639;SDS011;10479;53.524;9.846;2023-03-23T07:03:53;9.23;;;4.43;;
20639;SDS011;10479;53.524;9.846;2023-03-23T07:06:20;9.77;;;3.72;;
20639;SDS011;10479;53.524;9.846;2023-03-23T07:08:46;9.88;;;4.10;;
20639;SDS011;10479;53.524;9.846;2023-03-23T07:11:12;9.65;;;4.35;;
20639;SDS011;10479;53.524;9.846;2023-03-23T07:13:38;7.70;;;4.15;;
20639;SDS011;10479;53.524;9.846;2023-03-23T07:16:06;8.23;;;3.90;;
20639;SDS011;10479;53.524;9.846;2023-03-23T07:18:32;9.23;;;4.10;;
20639;SDS011;10479;53.524;9.846;2023-03-23T07:20:58;11.35;;;4.50;;
20639;SDS011;10479;53.524;9.846;2023-03-23T07:23:24;8.05;;;3.80;;
20639;SDS011;10479;53.524;9.846;2023-03-23T07:25:49;9.13;;;3.80;;
20639;SDS011;10479;53.524;9.846;2023-03-23T07:28:15;12.68;;;4.05;;
20639;SDS011;10479;53.524;9.846;2023-03-23T07:30:41;6.75;;;3.65;;
20639;SDS011;10479;53.524;9.846;2023-03-23T07:33:07;8.80;;;3.65;;
20639;SDS011;10479;53.524;9.846;2023-03-23T07:35:33;7.72;;;3.58;;
20639;SDS011;10479;53.524;9.846;2023-03-23T07:37:59;6.68;;;3.67;;
20639;SDS011;10479;53.524;9.846;2023-03-23T07:40:25;6.00;;;2.97;;
20639;SDS011;10479;53.524;9.846;2023-03-23T07:42:52;8.82;;;3.78;;
20639;SDS011;10479;53.524;9.846;2023-03-23T07:45:20;8.05;;;3.92;;
20639;SDS011;10479;53.524;9.846;2023-03-23T07:47:45;7.93;;;4.07;;
20639;SDS011;10479;53.524;9.846;2023-03-23T07:50:11;9.38;;;4.25;;
20639;SDS011;10479;53.524;9.846;2023-03-23T07:52:37;6.82;;;3.85;;
20639;SDS011;10479;53.524;9.846;2023-03-23T07:55:03;7.55;;;4.53;;
20639;SDS011;10479;53.524;9.846;2023-03-23T07:57:30;7.30;;;4.55;;
20639;SDS011;10479;53.524;9.846;2023-03-23T07:59:56;11.80;;;4.90;;
20639;SDS011;10479;53.524;9.846;2023-03-23T08:02:23;11.95;;;5.18;;
20639;SDS011;10479;53.524;9.846;2023-03-23T08:04:49;9.98;;;5.78;;
20639;SDS011;10479;53.524;9.846;2023-03-23T08:07:15;8.85;;;5.18;;
20639;SDS011;10479;53.524;9.846;2023-03-23T08:09:42;9.40;;;6.05;;
20639;SDS011;10479;53.524;9.846;2023-03-23T08:12:09;12.63;;;6.50;;
20639;SDS011;10479;53.524;9.846;2023-03-23T08:14:35;9.63;;;5.40;;
20639;SDS011;10479;53.524;9.846;2023-03-23T08:17:00;8.43;;;5.47;;
20639;SDS011;10479;53.524;9.846;2023-03-23T08:19:26;13.27;;;6.38;;
20639;SDS011;10479;53.524;9.846;2023-03-23T08:21:51;16.50;;;6.93;;
20639;SDS011;10479;53.524;9.846;2023-03-23T08:24:17;13.10;;;8.00;;
20639;SDS011;10479;53.524;9.846;2023-03-23T08:26:42;12.52;;;7.00;;
20639;SDS011;10479;53.524;9.846;2023-03-23T08:29:08;10.23;;;4.60;;
20639;SDS011;10479;53.524;9.846;2023-03-23T08:31:33;6.07;;;2.47;;
20639;SDS011;10479;53.524;9.846;2023-03-23T08:34:00;7.22;;;2.05;;
20639;SDS011;10479;53.524;9.846;2023-03-23T08:36:27;5.47;;;1.55;;
20639;SDS011;10479;53.524;9.846;2023-03-23T08:38:53;6.03;;;1.80;;
20639;SDS011;10479;53.524;9.846;2023-03-23T08:41:19;6.13;;;2.20;;
20639;SDS011;10479;53.524;9.846;2023-03-23T08:43:46;10.60;;;5.85;;
20639;SDS011;10479;53.524;9.846;2023-03-23T08:46:11;14.10;;;5.70;;
20639;SDS011;10479;53.524;9.846;2023-03-23T08:48:37;9.50;;;5.43;;
20639;SDS011;10479;53.524;9.846;2023-03-23T08:51:04;8.65;;;3.80;;
20639;SDS011;10479;53.524;9.846;2023-03-23T08:53:31;11.07;;;4.47;;
20639;SDS011;10479;53.524;9.846;2023-03-23T08:56:04;8.38;;;3.15;;
20639;SDS011;10479;53.524;9.846;2023-03-23T08:58:31;8.63;;;3.55;;
20639;SDS011;10479;53.524;9.846;2023-03-23T09:00:57;6.65;;;2.63;;
20639;SDS011;10479;53.524;9.846;2023-03-23T09:03:23;12.55;;;2.70;;
20639;SDS011;10479;53.524;9.846;2023-03-23T09:05:48;8.25;;;2.13;;
20639;SDS011;10479;53.524;9.846;2023-03-23T09:08:13;8.23;;;1.88;;
20639;SDS011;10479;53.524;9.846;2023-03-23T09:10:39;9.02;;;2.58;;
20639;SDS011;10479;53.524;9.846;2023-03-23T09:13:05;9.98;;;1.80;;
20639;SDS011;10479;53.524;9.846;2023-03-23T09:15:31;10.32;;;1.90;;
20639;SDS011;10479;53.524;9.846;2023-03-23T09:17:57;6.97;;;1.67;;
20639;SDS011;10479;53.524;9.846;2023-03-23T09:20:24;10.88;;;1.90;;
20639;SDS011;10479;53.524;9.846;2023-03-23T09:22:51;5.78;;;2.42;;
20639;SDS011;10479;53.524;9.846;2023-03-23T09:25:18;11.73;;;1.90;;
20639;SDS011;10479;53.524;9.846;2023-03-23T09:27:48;9.80;;;2.05;;
20639;SDS011;10479;53.524;9.846;2023-03-23T09:30:17;12.60;;;2.22;;
20639;SDS011;10479;53.524;9.846;2023-03-23T09:32:44;15.45;;;2.33;;
20639;SDS011;10479;53.524;9.846;2023-03-23T09:35:09;12.30;;;1.90;;
20639;SDS011;10479;53.524;9.846;2023-03-23T09:37:37;13.60;;;2.08;;
20639;SDS011;10479;53.524;9.846;2023-03-23T09:40:04;11.98;;;1.85;;
20639;SDS011;10479;53.524;9.846;2023-03-23T09:45:31;13.13;;;2.35;;
20639;SDS011;10479;53.524;9.846;2023-03-23T09:53:53;9.07;;;2.00;;
20639;SDS011;10479;53.524;9.846;2023-03-23T09:56:21;14.05;;;2.40;;
20639;SDS011;10479;53.524;9.846;2023-03-23T09:58:56;13.25;;;2.10;;
20639;SDS011;10479;53.524;9.846;2023-03-23T10:01:26;8.07;;;1.65;;
20639;SDS011;10479;53.524;9.846;2023-03-23T10:04:05;10.75;;;1.98;;
20639;SDS011;10479;53.524;9.846;2023-03-23T10:06:36;10.50;;;2.00;;
20639;SDS011;10479;53.524;9.846;2023-03-23T10:09:03;11.23;;;2.20;;
20639;SDS011;10479;53.524;9.846;2023-03-23T10:14:12;11.05;;;1.85;;
20639;SDS011;10479;53.524;9.846;2023-03-23T10:19:47;14.82;;;2.40;;
20639;SDS011;10479;53.524;9.846;2023-03-23T10:22:21;11.18;;;1.67;;
20639;SDS011;10479;53.524;9.846;2023-03-23T10:24:57;13.60;;;2.28;;
20639;SDS011;10479;53.524;9.846;2023-03-23T10:27:50;14.65;;;2.10;;
20639;SDS011;10479;53.524;9.846;2023-03-23T10:30:26;14.15;;;3.13;;
20639;SDS011;10479;53.524;9.846;2023-03-23T10:33:02;12.02;;;2.28;;
20639;SDS011;10479;53.524;9.846;2023-03-23T10:35:50;15.02;;;2.25;;
20639;SDS011;10479;53.524;9.846;2023-03-23T10:41:04;10.25;;;2.25;;
20639;SDS011;10479;53.524;9.846;2023-03-23T10:43:32;13.38;;;2.40;;
20639;SDS011;10479;53.524;9.846;2023-03-23T10:46:02;12.90;;;2.25;;
20639;SDS011;10479;53.524;9.846;2023-03-23T10:48:51;14.35;;;2.47;;
20639;SDS011;10479;53.524;9.846;2023-03-23T10:51:19;11.48;;;2.17;;
20639;SDS011;10479;53.524;9.846;2023-03-23T10:53:50;13.73;;;2.38;;
20639;SDS011;10479;53.524;9.846;2023-03-23T10:56:28;11.75;;;1.98;;
20639;SDS011;10479;53.524;9.846;2023-03-23T10:59:12;15.38;;;2.60;;
20639;SDS011;10479;53.524;9.846;2023-03-23T11:01:47;13.38;;;2.35;;
20639;SDS011;10479;53.524;9.846;2023-03-23T11:04:15;12.93;;;2.15;;
20639;SDS011;10479;53.524;9.846;2023-03-23T11:06:45;17.45;;;2.20;;
20639;SDS011;10479;53.524;9.846;2023-03-23T11:09:16;19.15;;;2.30;;
20639;SDS011;10479;53.524;9.846;2023-03-23T11:11:47;11.52;;;2.08;;
20639;SDS011;10479;53.524;9.846;2023-03-23T11:14:18;23.35;;;2.55;;
20639;SDS011;10479;53.524;9.846;2023-03-23T11:16:56;15.65;;;2.85;;
20639;SDS011;10479;53.524;9.846;2023-03-23T11:19:27;15.93;;;2.85;;
20639;SDS011;10479;53.524;9.846;2023-03-23T11:24:41;11.63;;;2.42;;
20639;SDS011;10479;53.524;9.846;2023-03-23T11:27:11;13.52;;;2.78;;
20639;SDS011;10479;53.524;9.846;2023-03-23T11:32:18;11.85;;;2.80;;
20639;SDS011;10479;53.524;9.846;2023-03-23T11:34:53;13.93;;;2.83;;
20639;SDS011;10479;53.524;9.846;2023-03-23T11:37:29;13.15;;;3.05;;
20639;SDS011;10479;53.524;9.846;2023-03-23T11:45:12;15.05;;;3.00;;
20639;SDS011;10479;53.524;9.846;2023-03-23T11:53:37;12.65;;;2.90;;
20639;SDS011;10479;53.524;9.846;2023-03-23T11:56:28;10.75;;;2.83;;
20639;SDS011;10479;53.524;9.846;2023-03-23T11:59:34;13.50;;;3.00;;
20639;SDS011;10479;53.524;9.846;2023-03-23T12:07:35;11.60;;;3.40;;
20639;SDS011;10479;53.524;9.846;2023-03-23T12:12:43;8.57;;;3.60;;
20639;SDS011;10479;53.524;9.846;2023-03-23T12:15:20;13.90;;;3.40;;
20639;SDS011;10479;53.524;9.846;2023-03-23T12:17:56;11.45;;;3.72;;
20639;SDS011;10479;53.524;9.846;2023-03-23T12:23:25;15.50;;;3.42;;
20639;SDS011;10479;53.524;9.846;2023-03-23T12:26:27;20.10;;;3.85;;
20639;SDS011;10479;53.524;9.846;2023-03-23T12:29:45;15.57;;;4.30;;
20639;SDS011;10479;53.524;9.846;2023-03-23T12:34:54;13.48;;;3.22;;
20639;SDS011;10479;53.524;9.846;2023-03-23T12:42:32;10.43;;;3.38;;
20639;SDS011;10479;53.524;9.846;2023-03-23T12:47:57;17.42;;;4.03;;
20639;SDS011;10479;53.524;9.846;2023-03-23T12:50:33;14.27;;;4.22;;
20639;SDS011;10479;53.524;9.846;2023-03-23T12:53:21;15.93;;;3.75;;
20639;SDS011;10479;53.524;9.846;2023-03-23T12:55:50;16.45;;;3.95;;
20639;SDS011;10479;53.524;9.846;2023-03-23T12:58:19;10.45;;;3.33;;
20639;SDS011;10479;53.524;9.846;2023-03-23T13:00:57;14.45;;;3.53;;
20639;SDS011;10479;53.524;9.846;2023-03-23T13:06:07;12.90;;;2.60;;
20639;SDS011;10479;53.524;9.846;2023-03-23T13:08:38;14.45;;;3.33;;
20639;SDS011;10479;53.524;9.846;2023-03-23T13:11:17;16.05;;;4.10;;
20639;SDS011;10479;53.524;9.846;2023-03-23T13:13:53;14.85;;;3.53;;
20639;SDS011;10479;53.524;9.846;2023-03-23T13:16:44;13.77;;;3.40;;
20639;SDS011;10479;53.524;9.846;2023-03-23T13:19:51;13.77;;;3.10;;
20639;SDS011;10479;53.524;9.846;2023-03-23T13:25:02;11.57;;;2.50;;
20639;SDS011;10479;53.524;9.846;2023-03-23T13:27:33;10.15;;;2.60;;
20639;SDS011;10479;53.524;9.846;2023-03-23T13:29:58;10.00;;;2.83;;
20639;SDS011;10479;53.524;9.846;2023-03-23T13:32:34;11.85;;;3.05;;
20639;SDS011;10479;53.524;9.846;2023-03-23T13:35:05;11.15;;;2.95;;
20639;SDS011;10479;53.524;9.846;2023-03-23T13:37:41;8.40;;;2.45;;
20639;SDS011;10479;53.524;9.846;2023-03-23T13:42:39;8.27;;;2.42;;
20639;SDS011;10479;53.524;9.846;2023-03-23T13:45:21;4.97;;;2.03;;
20639;SDS011;10479;53.524;9.846;2023-03-23T13:47:50;8.55;;;2.47;;
20639;SDS011;10479;53.524;9.846;2023-03-23T13:50:50;10.68;;;2.80;;
20639;SDS011;10479;53.524;9.846;2023-03-23T13:56:13;8.30;;;2.40;;
20639;SDS011;10479;53.524;9.846;2023-03-23T13:58:46;8.05;;;2.30;;
20639;SDS011;10479;53.524;9.846;2023-03-23T14:01:30;9.48;;;2.80;;
20639;SDS011;10479;53.524;9.846;2023-03-23T14:03:58;10.32;;;2.72;;
20639;SDS011;10479;53.524;9.846;2023-03-23T14:06:25;9.90;;;1.88;;
20639;SDS011;10479;53.524;9.846;2023-03-23T14:08:52;3.45;;;1.40;;
20639;SDS011;10479;53.524;9.846;2023-03-23T14:11:23;8.00;;;1.90;;
20639;SDS011;10479;53.524;9.846;2023-03-23T14:13:58;4.82;;;1.40;;
20639;SDS011;10479;53.524;9.846;2023-03-23T14:16:31;10.45;;;1.60;;
20639;SDS011;10479;53.524;9.846;2023-03-23T14:19:00;5.90;;;1.63;;
20639;SDS011;10479;53.524;9.846;2023-03-23T14:21:38;6.90;;;1.70;;
20639;SDS011;10479;53.524;9.846;2023-03-23T14:26:37;6.55;;;2.00;;
20639;SDS011;10479;53.524;9.846;2023-03-23T14:29:04;7.47;;;1.33;;
20639;SDS011;10479;53.524;9.846;2023-03-23T14:31:30;5.07;;;1.38;;
20639;SDS011;10479;53.524;9.846;2023-03-23T14:33:56;8.27;;;1.67;;
20639;SDS011;10479;53.524;9.846;2023-03-23T14:36:29;8.20;;;1.50;;
20639;SDS011;10479;53.524;9.846;2023-03-23T14:39:43;5.82;;;1.13;;
20639;SDS011;10479;53.524;9.846;2023-03-23T14:41:54;9.02;;;1.45;;
20639;SDS011;10479;53.524;9.846;2023-03-23T14:44:25;7.47;;;1.20;;
20639;SDS011;10479;53.524;9.846;2023-03-23T14:46:52;5.47;;;1.33;;
20639;SDS011;10479;53.524;9.846;2023-03-23T14:49:20;5.40;;;1.10;;
20639;SDS011;10479;53.524;9.846;2023-03-23T14:51:51;5.90;;;1.20;;
20639;SDS011;10479;53.524;9.846;2023-03-23T14:54:22;4.93;;;1.42;;
20639;SDS011;10479;53.524;9.846;2023-03-23T14:56:50;7.93;;;1.42;;
20639;SDS011;10479;53.524;9.846;2023-03-23T14:59:15;7.10;;;1.52;;
20639;SDS011;10479;53.524;9.846;2023-03-23T15:01:41;11.10;;;1.75;;
20639;SDS011;10479;53.524;9.846;2023-03-23T15:04:13;5.50;;;1.50;;
20639;SDS011;10479;53.524;9.846;2023-03-23T15:06:45;5.38;;;1.27;;
20639;SDS011;10479;53.524;9.846;2023-03-23T15:11:49;5.40;;;1.50;;
20639;SDS011;10479;53.524;9.846;2023-03-23T15:14:29;7.07;;;1.30;;
20639;SDS011;10479;53.524;9.846;2023-03-23T15:16:58;9.73;;;1.60;;
20639;SDS011;10479;53.524;9.846;2023-03-23T15:19:25;10.80;;;1.70;;
20639;SDS011;10479;53.524;9.846;2023-03-23T15:22:06;7.65;;;1.70;;
20639;SDS011;10479;53.524;9.846;2023-03-23T15:24:44;6.63;;;1.40;;
20639;SDS011;10479;53.524;9.846;2023-03-23T15:27:14;7.40;;;1.95;;
20639;SDS011;10479;53.524;9.846;2023-03-23T15:29:52;7.38;;;2.05;;
20639;SDS011;10479;53.524;9.846;2023-03-23T15:32:28;4.15;;;1.30;;
20639;SDS011;10479;53.524;9.846;2023-03-23T15:34:54;7.18;;;1.52;;
20639;SDS011;10479;53.524;9.846;2023-03-23T15:37:23;7.72;;;1.60;;
20639;SDS011;10479;53.524;9.846;2023-03-23T15:39:51;5.68;;;1.25;;
20639;SDS011;10479;53.524;9.846;2023-03-23T15:42:22;7.07;;;2.03;;
20639;SDS011;10479;53.524;9.846;2023-03-23T15:44:58;9.05;;;1.88;;
20639;SDS011;10479;53.524;9.846;2023-03-23T15:47:35;6.40;;;1.17;;
20639;SDS011;10479;53.524;9.846;2023-03-23T15:50:15;9.85;;;1.40;;
20639;SDS011;10479;53.524;9.846;2023-03-23T15:52:42;9.05;;;1.52;;
20639;SDS011;10479;53.524;9.846;2023-03-23T15:55:24;7.10;;;1.23;;
20639;SDS011;10479;53.524;9.846;2023-03-23T15:57:50;6.03;;;1.27;;
20639;SDS011;10479;53.524;9.846;2023-03-23T16:00:17;5.60;;;1.13;;
20639;SDS011;10479;53.524;9.846;2023-03-23T16:02:45;6.65;;;1.50;;
20639;SDS011;10479;53.524;9.846;2023-03-23T16:05:12;6.00;;;1.10;;
20639;SDS011;10479;53.524;9.846;2023-03-23T16:07:37;7.05;;;1.30;;
20639;SDS011;10479;53.524;9.846;2023-03-23T16:10:04;5.05;;;1.25;;
20639;SDS011;10479;53.524;9.846;2023-03-23T16:12:30;5.40;;;1.23;;
20639;SDS011;10479;53.524;9.846;2023-03-23T16:14:56;12.77;;;1.92;;
20639;SDS011;10479;53.524;9.846;2023-03-23T16:17:21;5.43;;;1.25;;
20639;SDS011;10479;53.524;9.846;2023-03-23T16:19:47;7.13;;;1.88;;
20639;SDS011;10479;53.524;9.846;2023-03-23T16:22:12;5.93;;;1.40;;